Advance, MO (63730)

4:53 PM CDT on April 19, 2015 (GMT -0500)
rural | | Change Station
CLOSE
Current Station
Personal Weather Station
Location: Whitewater, MO
Elevation: 410 ft
Nearby Weather Stations

Elev 410 ft 37.24 °N, 89.86 °W | Updated 6 seconds ago

Overcast
Overcast
67.7 °F
Feels Like 67.7 °F
N
2.0
Wind Variable Wind from West
Gusts 5.0 mph

Today
High -- | Low -- °F
--% Chance of Precip.
Yesterday
High -- | Low -- °F
Precip. -- in
6:20 AM 7:37 PM
New Moon, 2% visible
Pressure 29.53 in
Visibility 10.0 miles
Clouds Few 1600 ft
Mostly Cloudy 2300 ft
Mostly Cloudy 2900 ft
Dew Point 63 °F
Humidity 86%
Rainfall 0.56 in
Snow Depth Not available.
UV 2 out of 12
Pollen 4.00 out of 12
Air Quality Not available.
Flu Activity Local Activity
SPECI KCGI 192124Z AUTO 29014G22KT 10SM FEW016 BKN023 BKN029 19/17 A2953 RMK AO2 T01890167 TSNO

More Conditions Fewer Conditions

Pressure 29.53 in
Visibility 10.0 miles
Clouds Few 1600 ft
Mostly Cloudy 2300 ft
Mostly Cloudy 2900 ft
Dew Point 63 °F
Humidity 86%
Rainfall 0.56 in
Snow Depth Not available.
UV 2 out of 12
Pollen 4.00 out of 12
Air Quality Not available.
Flu Activity Local Activity
SPECI KCGI 192124Z AUTO 29014G22KT 10SM FEW016 BKN023 BKN029 19/17 A2953 RMK AO2 T01890167 TSNO

More Conditions Fewer Conditions

10-Day Weather Forecast

Almanac

Astronomy

Apr. 19, 2015 Rise Set
Actual Time
Civil Twilight
Nautical Twilight
Astronomical Twilight
Moon
Length of Visible Light
Length of Day
Tomorrow will be .
, % of the Moon is Illuminated

Today's Extremes

State Highs State Lows

Community

WunderPhotos

Upload Photos

1,814,994 photos uploaded!

WunderBlogs® & News

Nearby

Air Quality

  Air Quality AQ Index Pollutant
Not available.

Snow Depth

Station Depth Elevation

Earthquake Activity

City Distance Mag. Time & Date
Minimum magnitude displayed is 2.5.

Coastal Water Temperatures

Place Temperature

Stations

Nearby Weather Stations

Station Location Temp. Windchill Dew Point Humidity Wind Precip. Elev Updated Type